Melbourne, FL

7:21 AM EST on December 08, 2016 (GMT -0500)
Melbourne International | | Change Station

Elev 33 ft 28.10 °N, 80.65 °W | Updated 28 minutes ago

Clear
Clear
56 °F
Feels Like 56 °F
N
5
Wind Variable Wind from WNW

Today
High -- | Low -- °F
--% Chance of Precip.
Yesterday
High -- | Low -- °F
Precip. -- in
Pressure 30.11 in
Visibility 6.0 miles
Clouds Clear
Dew Point 56 °F
Humidity 100%
Rainfall 0.00 in
Snow Depth Not available.
7:02 AM 5:27 PM
Waxing Gibbous, 63% visible
METAR KMLB 081153Z 29004KT 6SM BR CLR 13/13 A3011 RMK AO2 SLP194 T01330133 10167 20133 53008 $
Pressure 30.11 in
Visibility 6.0 miles
Clouds Clear
Dew Point 56 °F
Humidity 100%
Rainfall 0.00 in
Snow Depth Not available.
7:02 AM 5:27 PM
Waxing Gibbous, 63% visible
METAR KMLB 081153Z 29004KT 6SM BR CLR 13/13 A3011 RMK AO2 SLP194 T01330133 10167 20133 53008 $

10-Day Weather Forecast

Almanac

Astronomy

Dec. 08, 2016 Rise Set
Actual Time
Civil Twilight
Nautical Twilight
Astronomical Twilight
Moon
Length of Visible Light
Length of Day
Tomorrow will be .
, % of the Moon is Illuminated

Today's Extremes

State Highs State Lows

Community

WunderPhotos

Upload Photos

1,956,267 photos uploaded!

WunderBlog® & News

Nearby

Air Quality

  Air Quality AQ Index Pollutant
Not available.

Snow Depth

Station Depth Elevation

Earthquake Activity

City Distance Mag. Time & Date
Minimum magnitude displayed is 2.5.

Coastal Water Temperatures

Place Temperature

Stations

Nearby Weather Stations

Station Location Temp. Windchill Dew Point Humidity Wind Precip. Elev Updated Type
                   

Watches & Warnings

There are currently no watches in effect.